Time;durP1;ratioP1;P1;durP2;ratioP2;P2;SDS_P1;SDS_P2;PMS_P1;PMS_P2;Temp;Humidity;BMP_temperature;BMP_pressure;BME280_temperature;BME280_humidity;BME280_pressure;Samples;Min_cycle;Max_cycle;Signal;HPM_P1;HPM_P2
2023/10/05 00:04:50;;;;;;;7.32;3.65;;;;;;;12.95;70.97;93648.72;2019095;71;20165;-73
2023/10/05 00:07:23;;;;;;;7.03;3.25;;;;;;;12.97;71.55;93643.94;2019521;71;20168;-73
2023/10/05 00:09:52;;;;;;;8.07;3.75;;;;;;;12.98;71.43;93642.59;2019678;71;20200;-73
2023/10/05 00:12:22;;;;;;;5.68;3.40;;;;;;;12.95;71.09;93632.50;2018967;71;20146;-74
2023/10/05 00:17:29;;;;;;;6.47;3.00;;;;;;;12.87;71.24;93623.47;2019587;71;20248;-73
2023/10/05 00:19:55;;;;;;;5.78;2.97;;;;;;;12.90;71.00;93625.09;2019068;71;20199;-72
2023/10/05 00:22:21;;;;;;;5.55;3.10;;;;;;;12.90;71.25;93621.53;2016307;71;20173;-73
2023/10/05 00:24:49;;;;;;;6.00;3.28;;;;;;;12.88;72.68;93624.97;2019669;71;20150;-74
2023/10/05 00:27:15;;;;;;;4.85;3.28;;;;;;;13.02;71.97;93621.63;2019622;71;20173;-75
2023/10/05 00:29:42;;;;;;;6.35;3.25;;;;;;;12.97;71.78;93623.44;2019669;71;20237;-76
2023/10/05 00:32:15;;;;;;;6.78;2.95;;;;;;;13.03;70.35;93620.25;2019518;71;20160;-75
2023/10/05 00:34:48;;;;;;;5.40;2.90;;;;;;;12.87;71.46;93622.72;2019983;71;20660;-76
2023/10/05 00:37:16;;;;;;;8.23;3.60;;;;;;;12.92;71.39;93621.66;2019980;71;20528;-74
2023/10/05 00:39:49;;;;;;;8.20;3.25;;;;;;;12.89;71.20;93629.28;2016593;71;20626;-75
2023/10/05 00:42:15;;;;;;;7.00;3.30;;;;;;;12.89;71.43;93625.72;2019260;71;20173;-75
2023/10/05 00:44:42;;;;;;;6.20;3.05;;;;;;;12.93;71.45;93618.25;2019889;71;20257;-74
2023/10/05 00:47:11;;;;;;;5.95;3.05;;;;;;;12.87;72.08;93615.00;2019923;71;20149;-74
2023/10/05 00:49:45;;;;;;;5.38;3.08;;;;;;;12.93;71.78;93620.31;2019808;71;20160;-73
2023/10/05 00:52:16;;;;;;;7.60;3.08;;;;;;;12.93;72.19;93606.94;2019360;71;20141;-75
2023/10/05 00:54:48;;;;;;;7.07;3.30;;;;;;;12.97;71.71;93612.84;2014100;71;20142;-75
2023/10/05 00:57:15;;;;;;;8.18;3.20;;;;;;;13.02;71.17;93610.31;2019253;71;20157;-74
2023/10/05 00:59:42;;;;;;;6.90;4.15;;;;;;;12.84;71.97;93609.81;2019366;71;20618;-74
2023/10/05 01:02:14;;;;;;;10.73;3.50;;;;;;;12.80;72.07;93601.06;2019473;71;20219;-75
2023/10/05 01:07:18;;;;;;;6.18;2.80;;;;;;;12.86;72.33;93609.94;2019277;71;20173;-75
2023/10/05 01:12:45;;;;;;;7.65;3.38;;;;;;;12.97;71.94;93598.72;2019608;71;20138;-76
2023/10/05 01:15:18;;;;;;;8.45;3.33;;;;;;;12.95;72.14;93597.84;2019079;71;20182;-74
2023/10/05 01:17:47;;;;;;;7.82;3.22;;;;;;;12.94;71.34;93587.88;2019721;71;20542;-75
2023/10/05 01:22:45;;;;;;;;;;;;;;;13.00;72.15;93598.84;2019175;71;20157;-76
2023/10/05 01:25:14;;;;;;;7.00;3.47;;;;;;;12.96;72.09;93597.22;2019191;71;20050;-74
2023/10/05 01:27:49;;;;;;;7.80;3.28;;;;;;;12.96;72.49;93594.41;2019763;71;20262;-73
2023/10/05 01:30:17;;;;;;;8.25;3.25;;;;;;;12.94;72.14;93599.94;2019156;71;20180;-74
2023/10/05 01:32:44;;;;;;;8.10;3.00;;;;;;;12.91;71.85;93595.47;2019748;71;20145;-74
2023/10/05 01:35:15;;;;;;;7.13;3.33;;;;;;;12.91;72.12;93591.91;2019460;71;20206;-74
2023/10/05 01:37:46;;;;;;;5.57;3.05;;;;;;;12.90;72.21;93591.19;2018942;71;20193;-74
2023/10/05 01:40:23;;;;;;;7.65;3.00;;;;;;;12.78;72.15;93592.44;2019219;71;20184;-74
2023/10/05 01:42:51;;;;;;;7.93;3.50;;;;;;;12.81;72.08;93591.97;2019600;71;20142;-73
2023/10/05 01:45:34;;;;;;;7.22;3.25;;;;;;;12.78;71.97;93589.63;2019120;71;20621;-74
2023/10/05 01:48:01;;;;;;;7.10;3.42;;;;;;;12.78;72.46;93598.84;2019194;71;20530;-73
2023/10/05 01:50:27;;;;;;;10.70;3.00;;;;;;;12.77;72.39;93605.84;2019125;71;20161;-74
2023/10/05 01:53:15;;;;;;;6.28;2.92;;;;;;;12.82;72.25;93587.06;2019127;71;20165;-74
2023/10/05 01:55:44;;;;;;;5.35;3.13;;;;;;;12.67;72.79;93600.25;2019135;71;20149;-73
2023/10/05 01:58:13;;;;;;;6.00;3.03;;;;;;;12.89;71.68;93591.78;2019067;71;20603;-74
2023/10/05 02:00:41;;;;;;;5.60;3.28;;;;;;;12.80;71.83;93593.34;2019110;71;20487;-74
2023/10/05 02:03:14;;;;;;;7.68;3.08;;;;;;;12.87;71.27;93594.47;2019103;71;20346;-75
2023/10/05 02:06:04;;;;;;;5.95;3.17;;;;;;;12.95;71.32;93586.53;2018782;71;20233;-74
2023/10/05 02:08:35;;;;;;;6.95;3.05;;;;;;;12.91;71.66;93591.91;2018991;71;20600;-74
2023/10/05 02:11:04;;;;;;;7.82;3.35;;;;;;;12.92;72.08;93582.09;2021625;71;20523;-74
2023/10/05 02:13:31;;;;;;;8.98;3.28;;;;;;;12.90;71.90;93571.41;2016170;71;20177;-74
2023/10/05 02:15:59;;;;;;;4.60;2.90;;;;;;;12.85;73.19;93575.31;2015893;71;20185;-74
2023/10/05 02:18:25;;;;;;;5.63;3.30;;;;;;;12.94;72.86;93568.84;2013524;71;20169;-74
2023/10/05 02:21:17;;;;;;;6.38;3.08;;;;;;;12.87;72.33;93566.22;2016241;71;20237;-74
2023/10/05 02:23:41;;;;;;;6.28;3.08;;;;;;;12.91;71.63;93572.88;2018532;71;20702;-76
2023/10/05 02:26:23;;;;;;;6.07;3.35;;;;;;;12.93;71.52;93569.47;2018934;71;20591;-76
2023/10/05 02:28:49;;;;;;;7.32;3.58;;;;;;;12.95;71.99;93566.75;2021297;71;20154;-76
2023/10/05 02:31:15;;;;;;;7.70;3.53;;;;;;;13.06;70.66;93571.00;2019012;71;20666;-76
2023/10/05 02:33:43;;;;;;;8.25;3.42;;;;;;;13.07;72.13;93566.81;2016195;71;20207;-76
2023/10/05 02:36:11;;;;;;;8.55;3.30;;;;;;;13.09;71.80;93578.97;2016301;71;20166;-74
2023/10/05 02:38:39;;;;;;;6.55;3.30;;;;;;;13.09;69.97;93590.28;2019645;71;20209;-75
2023/10/05 02:41:06;;;;;;;6.95;3.42;;;;;;;13.17;71.38;93588.00;2019446;71;20177;-74
2023/10/05 02:43:39;;;;;;;6.68;3.30;;;;;;;12.94;70.98;93585.06;2018793;71;20252;-74
2023/10/05 02:46:10;;;;;;;10.80;3.40;;;;;;;12.88;71.77;93588.22;2019059;71;20176;-74
2023/10/05 02:48:39;;;;;;;6.95;3.38;;;;;;;13.14;70.19;93588.47;2019189;71;20274;-74
2023/10/05 02:51:05;;;;;;;6.28;3.47;;;;;;;13.26;69.80;93580.81;2019121;71;20161;-74
2023/10/05 02:53:40;;;;;;;7.63;2.95;;;;;;;13.31;69.09;93584.66;2019106;71;20615;-74
2023/10/05 02:56:26;;;;;;;6.63;3.45;;;;;;;13.36;70.28;93581.47;2016748;71;20660;-74
2023/10/05 02:58:54;;;;;;;8.23;3.30;;;;;;;13.27;69.50;93579.47;2018751;71;20153;-76
2023/10/05 03:01:22;;;;;;;6.78;3.70;;;;;;;13.16;70.37;93580.88;2018732;71;20530;-74
2023/10/05 03:03:51;;;;;;;8.55;3.58;;;;;;;13.14;70.80;93580.72;2018830;71;20162;-74
2023/10/05 03:06:17;;;;;;;7.82;3.15;;;;;;;13.17;69.43;93573.13;2019685;71;20160;-74
2023/10/05 03:08:48;;;;;;;5.28;3.08;;;;;;;13.24;69.94;93566.56;2018743;71;20594;-75
2023/10/05 03:11:13;;;;;;;5.82;3.20;;;;;;;13.18;70.30;93568.94;2018591;71;20233;-74
2023/10/05 03:13:39;;;;;;;6.13;3.35;;;;;;;13.17;70.13;93567.47;2019391;71;20239;-75
2023/10/05 03:16:10;;;;;;;7.43;3.10;;;;;;;13.04;71.01;93568.03;2018835;71;20164;-75
2023/10/05 03:18:43;;;;;;;7.97;3.33;;;;;;;13.03;69.99;93572.94;2018785;71;20160;-76
2023/10/05 03:21:14;;;;;;;6.00;3.30;;;;;;;12.97;71.01;93569.72;2018847;71;20240;-75
2023/10/05 03:23:41;;;;;;;6.05;3.25;;;;;;;12.98;69.87;93565.53;2018710;71;20242;-75
2023/10/05 03:26:13;;;;;;;5.82;3.38;;;;;;;12.90;71.27;93570.66;2016253;71;20238;-75
2023/10/05 03:28:41;;;;;;;6.82;3.47;;;;;;;12.91;70.59;93575.69;2018692;71;20142;-74
2023/10/05 03:31:37;;;;;;;6.60;3.20;;;;;;;12.92;70.94;93577.19;2019170;71;20158;-73
2023/10/05 03:34:06;;;;;;;7.22;3.35;;;;;;;12.81;70.97;93583.50;2018855;71;20200;-74
2023/10/05 03:36:33;;;;;;;6.47;3.22;;;;;;;12.86;70.97;93581.69;2019252;71;20154;-74
2023/10/05 03:39:03;;;;;;;7.28;3.22;;;;;;;12.70;71.12;93587.75;2016403;71;20150;-73
2023/10/05 03:41:30;;;;;;;7.40;3.45;;;;;;;12.65;71.30;93583.19;2019226;71;20138;-74
2023/10/05 03:44:01;;;;;;;5.82;3.35;;;;;;;12.77;71.07;93588.16;2019132;71;20611;-74
2023/10/05 03:46:27;;;;;;;6.03;3.55;;;;;;;12.62;70.94;93587.19;2019625;71;20178;-74
2023/10/05 03:48:59;;;;;;;7.07;3.30;;;;;;;12.71;70.86;93580.00;2019672;71;20174;-73
2023/10/05 03:51:26;;;;;;;7.28;3.28;;;;;;;12.76;71.13;93584.59;2019742;71;20150;-74
2023/10/05 03:53:51;;;;;;;6.43;3.20;;;;;;;12.78;70.66;93587.53;2019723;71;20150;-74
2023/10/05 03:56:19;;;;;;;7.28;3.40;;;;;;;12.71;70.52;93577.19;2019707;71;20154;-74
2023/10/05 03:58:47;;;;;;;6.63;3.13;;;;;;;12.77;70.35;93591.72;2019089;71;20177;-74
2023/10/05 04:01:13;;;;;;;6.65;3.30;;;;;;;12.78;69.87;93589.63;2021963;71;20157;-76
2023/10/05 04:03:46;;;;;;;6.25;3.53;;;;;;;12.69;70.96;93594.75;2019632;71;20201;-76
2023/10/05 04:06:26;;;;;;;6.47;3.10;;;;;;;12.66;71.74;93589.56;2020008;71;20253;-75
2023/10/05 04:08:57;;;;;;;6.05;3.55;;;;;;;12.46;71.87;93592.50;2020028;71;20249;-75
2023/10/05 04:11:27;;;;;;;8.20;3.42;;;;;;;12.35;72.67;93587.50;2020099;71;20259;-75
2023/10/05 04:13:54;;;;;;;5.38;3.25;;;;;;;12.44;71.43;93583.88;2019680;71;20542;-74
2023/10/05 04:16:33;;;;;;;6.18;3.58;;;;;;;12.36;72.60;93572.03;2019843;71;20206;-76
2023/10/05 04:19:04;;;;;;;7.97;3.38;;;;;;;12.41;71.63;93575.88;2019368;71;20181;-76
2023/10/05 04:21:30;;;;;;;5.22;3.47;;;;;;;12.38;71.95;93579.91;2019771;71;20145;-77
2023/10/05 04:23:59;;;;;;;7.47;3.40;;;;;;;12.37;72.06;93575.59;2019791;71;20523;-74
2023/10/05 04:26:37;;;;;;;6.57;3.25;;;;;;;12.32;70.45;93568.19;2019585;71;20170;-74
2023/10/05 04:29:04;;;;;;;7.28;3.22;;;;;;;12.35;71.84;93584.66;2019026;71;20165;-74
2023/10/05 04:31:36;;;;;;;7.22;3.30;;;;;;;12.26;71.84;93587.53;2019805;71;20149;-74
2023/10/05 04:34:05;;;;;;;6.70;3.38;;;;;;;12.29;71.44;93583.53;2019861;71;20158;-74
2023/10/05 04:36:32;;;;;;;6.72;3.30;;;;;;;12.24;72.42;93593.81;2019389;71;20608;-76
2023/10/05 04:38:58;;;;;;;7.68;3.53;;;;;;;12.29;71.20;93583.53;2019927;71;20526;-75
2023/10/05 04:41:28;;;;;;;5.70;2.95;;;;;;;12.20;72.41;93577.31;2019807;71;20157;-75
2023/10/05 04:43:57;;;;;;;6.20;3.33;;;;;;;12.16;72.89;93581.94;2019723;71;20166;-74
2023/10/05 04:46:24;;;;;;;9.38;3.80;;;;;;;11.71;75.20;93581.63;2019793;71;20177;-74
2023/10/05 04:49:12;;;;;;;8.70;3.88;;;;;;;11.96;73.99;93592.56;2018991;71;20165;-75
2023/10/05 04:51:44;;;;;;;11.35;6.28;;;;;;;11.93;73.04;93594.50;2019598;71;20248;-73
2023/10/05 04:54:11;;;;;;;11.23;5.15;;;;;;;11.90;73.47;93600.59;2019612;71;20172;-75
2023/10/05 05:01:46;;;;;;;9.27;3.63;;;;;;;11.89;72.89;93602.69;2019637;71;20274;-76
2023/10/05 05:07:00;;;;;;;12.15;6.25;;;;;;;11.76;73.70;93603.13;2019884;71;20144;-78
2023/10/05 05:09:35;;;;;;;9.80;5.70;;;;;;;11.71;74.24;93607.75;2019853;71;20157;-75
2023/10/05 05:12:08;;;;;;;8.18;4.75;;;;;;;11.70;73.53;93608.34;2018977;71;20279;-75
2023/10/05 05:14:41;;;;;;;10.65;5.10;;;;;;;11.69;73.85;93606.88;2019602;71;20619;-75
2023/10/05 05:17:15;;;;;;;8.27;4.30;;;;;;;11.66;74.07;93610.88;2019486;71;20641;-76
2023/10/05 05:19:41;;;;;;;9.93;4.40;;;;;;;11.64;73.95;93600.22;2019580;71;20538;-76
2023/10/05 05:22:08;;;;;;;7.75;4.05;;;;;;;11.67;73.79;93604.63;2019560;71;20153;-75
2023/10/05 05:24:38;;;;;;;7.75;3.97;;;;;;;11.61;74.52;93597.84;2019632;71;20149;-75
2023/10/05 05:27:11;;;;;;;6.75;3.70;;;;;;;11.58;74.18;93596.94;2018605;71;20592;-75
2023/10/05 05:29:38;;;;;;;6.03;3.70;;;;;;;11.53;73.43;93594.44;2019482;71;20170;-74
2023/10/05 05:32:13;;;;;;;7.90;3.70;;;;;;;11.30;74.36;93567.47;2019328;71;20150;-74
2023/10/05 05:34:42;;;;;;;6.45;3.70;;;;;;;11.58;72.26;93611.03;2019622;71;20161;-75
2023/10/05 05:37:28;;;;;;;9.50;4.40;;;;;;;11.51;74.01;93616.84;2019569;71;20582;-74
2023/10/05 05:39:55;;;;;;;10.38;3.92;;;;;;;11.55;73.80;93622.78;2019697;71;20606;-75
2023/10/05 05:42:25;;;;;;;9.27;4.50;;;;;;;11.52;73.47;93609.88;2019577;71;20141;-75
2023/10/05 05:44:52;;;;;;;8.18;4.75;;;;;;;11.60;74.01;93618.91;2019685;71;20146;-75
2023/10/05 05:47:18;;;;;;;9.75;4.47;;;;;;;11.61;73.86;93623.22;2019757;71;20160;-75
2023/10/05 05:49:46;;;;;;;11.30;4.40;;;;;;;11.62;73.84;93616.97;2019162;71;20142;-75
2023/10/05 05:52:14;;;;;;;10.05;4.30;;;;;;;11.41;75.59;93620.44;2019634;71;20161;-74
2023/10/05 05:54:41;;;;;;;10.55;4.50;;;;;;;11.49;75.33;93630.78;2019641;71;20157;-74
2023/10/05 05:57:11;;;;;;;9.93;4.80;;;;;;;11.79;74.20;93632.97;2019029;71;20174;-74
2023/10/05 05:59:38;;;;;;;9.52;4.07;;;;;;;11.84;74.73;93626.31;2019409;71;20595;-75
2023/10/05 06:02:08;;;;;;;10.77;4.40;;;;;;;11.86;73.84;93623.63;2019582;71;20149;-76
2023/10/05 06:04:41;;;;;;;9.25;4.78;;;;;;;11.96;72.49;93626.44;2019686;71;20144;-76
2023/10/05 06:07:11;;;;;;;10.98;5.68;;;;;;;11.87;74.33;93644.13;2019755;71;20164;-76
2023/10/05 06:09:46;;;;;;;11.95;6.22;;;;;;;11.92;73.37;93643.81;2019256;71;20150;-77
2023/10/05 06:12:16;;;;;;;10.38;6.20;;;;;;;12.02;74.32;93654.34;2019544;71;20213;-77
2023/10/05 06:14:42;;;;;;;12.65;6.43;;;;;;;12.02;74.11;93649.44;2019076;71;20294;-76
2023/10/05 06:17:09;;;;;;;13.23;6.00;;;;;;;12.14;72.83;93643.88;2019240;71;20189;-75
2023/10/05 06:19:37;;;;;;;10.75;6.28;;;;;;;12.27;73.34;93646.22;2019468;71;20256;-76
2023/10/05 06:22:06;;;;;;;16.58;10.13;;;;;;;12.22;72.85;93638.81;2018967;71;20172;-74
2023/10/05 06:24:32;;;;;;;12.57;7.50;;;;;;;12.20;73.89;93641.50;2019796;71;20546;-75
2023/10/05 06:27:00;;;;;;;12.18;7.53;;;;;;;12.29;71.92;93648.47;2019511;71;20149;-74
2023/10/05 06:29:26;;;;;;;12.25;6.90;;;;;;;12.40;70.86;93645.72;2019714;71;20195;-74
2023/10/05 06:31:52;;;;;;;15.02;7.43;;;;;;;12.33;72.78;93641.00;2019648;71;20236;-75
2023/10/05 06:34:18;;;;;;;14.75;6.70;;;;;;;12.43;72.75;93633.25;2018823;71;20165;-73
2023/10/05 06:36:43;;;;;;;11.93;6.47;;;;;;;12.35;73.20;93638.31;2019653;71;20145;-74
2023/10/05 06:39:14;;;;;;;7.70;4.75;;;;;;;12.20;73.36;93638.69;2019989;71;20241;-74
2023/10/05 06:41:40;;;;;;;13.23;4.75;;;;;;;12.37;72.72;93632.06;2019593;71;20180;-74
2023/10/05 06:44:07;;;;;;;9.15;5.00;;;;;;;12.53;72.40;93623.97;2019626;71;20150;-76
2023/10/05 06:46:33;;;;;;;7.95;4.60;;;;;;;12.65;73.31;93630.47;2019534;71;20236;-76
2023/10/05 06:48:59;;;;;;;10.18;5.63;;;;;;;12.44;73.64;93636.81;2019504;71;20149;-77
2023/10/05 06:51:29;;;;;;;8.80;5.60;;;;;;;12.68;72.88;93627.16;2018742;71;20181;-75
2023/10/05 06:53:57;;;;;;;9.68;4.25;;;;;;;12.71;71.62;93625.94;2019550;71;20223;-76
2023/10/05 06:56:23;;;;;;;9.93;5.18;;;;;;;12.68;72.90;93618.69;2019681;71;20569;-76
2023/10/05 06:58:49;;;;;;;8.40;5.15;;;;;;;12.77;72.19;93622.06;2019521;71;20158;-75
2023/10/05 07:01:15;;;;;;;9.65;5.13;;;;;;;12.91;72.81;93623.00;2019654;71;20657;-75
2023/10/05 07:03:41;;;;;;;11.15;5.78;;;;;;;13.01;72.04;93608.81;2019600;71;20123;-76
2023/10/05 07:06:07;;;;;;;7.38;3.92;;;;;;;12.95;70.80;93621.19;2019816;71;20157;-75
2023/10/05 07:08:33;;;;;;;7.35;3.50;;;;;;;13.13;70.02;93616.00;2018804;71;20150;-76
2023/10/05 07:10:59;;;;;;;7.95;4.07;;;;;;;13.44;69.06;93620.84;2019625;71;20153;-74
2023/10/05 07:13:25;;;;;;;8.77;4.32;;;;;;;13.40;70.15;93621.34;2019497;71;20166;-74
2023/10/05 07:15:51;;;;;;;5.97;3.58;;;;;;;13.71;69.63;93626.88;2019550;71;20523;-74
2023/10/05 07:18:18;;;;;;;10.07;4.30;;;;;;;13.82;69.53;93622.59;2019807;71;20149;-75
2023/10/05 07:20:44;;;;;;;10.13;4.38;;;;;;;13.91;68.90;93623.84;2019237;71;20169;-75
2023/10/05 07:23:10;;;;;;;7.32;3.78;;;;;;;13.77;67.88;93626.50;2019777;71;20157;-75
2023/10/05 07:25:37;;;;;;;9.00;3.55;;;;;;;14.16;66.92;93615.53;2019081;71;20210;-75
2023/10/05 07:28:03;;;;;;;7.35;3.53;;;;;;;14.31;66.00;93619.97;2019276;71;20150;-75
2023/10/05 07:30:29;;;;;;;6.10;3.92;;;;;;;13.63;68.92;93620.69;2019531;71;20150;-74
2023/10/05 07:32:55;;;;;;;8.88;4.40;;;;;;;13.63;69.27;93614.28;2018924;71;20164;-75
2023/10/05 07:35:21;;;;;;;6.75;4.03;;;;;;;14.12;66.16;93617.38;2019561;71;20154;-74
2023/10/05 07:37:47;;;;;;;7.50;4.00;;;;;;;13.61;69.26;93620.56;2019492;71;20149;-75
2023/10/05 07:40:13;;;;;;;8.55;4.28;;;;;;;13.86;67.95;93624.94;2019228;71;20130;-74
2023/10/05 07:42:40;;;;;;;6.97;4.00;;;;;;;14.18;67.04;93629.78;2019250;71;20145;-74
2023/10/05 07:45:11;;;;;;;6.85;4.03;;;;;;;14.62;65.24;93628.25;2018909;71;20169;-74
2023/10/05 07:47:43;;;;;;;9.23;4.07;;;;;;;14.41;65.70;93623.41;2019438;71;20184;-74
2023/10/05 07:50:10;;;;;;;8.73;4.28;;;;;;;14.61;64.41;93606.94;2019399;71;20138;-74
2023/10/05 07:52:38;;;;;;;8.68;4.18;;;;;;;14.74;65.31;93594.22;2019442;71;20153;-75
2023/10/05 07:55:06;;;;;;;7.00;4.35;;;;;;;14.51;66.36;93595.00;2019484;71;20163;-77
2023/10/05 07:57:31;;;;;;;6.55;3.90;;;;;;;14.97;64.75;93597.03;2019365;71;20245;-76
2023/10/05 07:59:57;;;;;;;5.80;3.78;;;;;;;15.06;64.55;93611.69;2019261;71;20151;-75
2023/10/05 08:02:22;;;;;;;9.38;3.90;;;;;;;14.28;66.60;93628.94;2019379;71;20158;-77
2023/10/05 08:04:48;;;;;;;6.80;3.92;;;;;;;14.85;66.27;93635.28;2019394;71;20146;-74
2023/10/05 08:07:15;;;;;;;8.80;3.85;;;;;;;14.71;66.53;93640.84;2019425;71;20192;-74
2023/10/05 08:09:44;;;;;;;6.53;3.70;;;;;;;14.84;66.18;93633.78;2019509;71;20591;-74
2023/10/05 08:12:11;;;;;;;7.65;4.03;;;;;;;15.31;66.17;93637.28;2021431;71;20134;-76
2023/10/05 08:14:37;;;;;;;6.13;3.67;;;;;;;15.51;65.51;93638.44;2018906;71;20526;-74
2023/10/05 08:17:03;;;;;;;5.28;3.33;;;;;;;15.66;65.34;93625.09;2019160;71;20150;-74
2023/10/05 08:19:29;;;;;;;9.25;3.55;;;;;;;16.20;65.00;93633.09;2019398;71;20154;-75
2023/10/05 08:21:55;;;;;;;6.55;3.78;;;;;;;16.62;63.65;93630.34;2019524;71;20247;-75
2023/10/05 08:24:23;;;;;;;9.55;3.70;;;;;;;15.99;63.88;93630.50;2020047;71;20592;-74
2023/10/05 08:26:53;;;;;;;6.22;3.40;;;;;;;16.49;62.30;93632.53;2019832;71;20146;-75
2023/10/05 08:29:22;;;;;;;6.95;3.60;;;;;;;16.83;62.43;93630.06;2020125;71;20275;-74
2023/10/05 08:31:52;;;;;;;7.32;3.60;;;;;;;17.10;60.07;93635.03;2019824;71;20611;-76
2023/10/05 08:34:21;;;;;;;6.50;3.40;;;;;;;16.84;60.48;93625.84;2019652;71;20150;-76
2023/10/05 08:36:53;;;;;;;5.43;3.40;;;;;;;17.53;59.71;93622.94;2019374;71;20164;-75
2023/10/05 08:39:25;;;;;;;5.80;3.40;;;;;;;17.23;59.29;93628.59;2021925;71;20588;-76
2023/10/05 08:42:06;;;;;;;7.88;3.65;;;;;;;17.18;58.94;93637.53;2019800;71;20145;-76
2023/10/05 08:44:38;;;;;;;5.72;3.28;;;;;;;17.79;58.74;93632.09;2019650;71;20146;-77
2023/10/05 08:47:11;;;;;;;5.35;3.38;;;;;;;18.05;57.64;93621.19;2019366;71;20241;-76
2023/10/05 08:49:37;;;;;;;6.57;3.50;;;;;;;18.54;58.22;93615.66;2019850;71;20161;-77
2023/10/05 08:52:13;;;;;;;8.35;3.47;;;;;;;18.82;56.82;93614.78;2019738;71;20157;-76
2023/10/05 08:54:40;;;;;;;6.13;2.95;;;;;;;18.88;55.66;93604.38;2019923;71;20158;-76
2023/10/05 08:57:11;;;;;;;6.30;3.38;;;;;;;19.31;55.20;93594.81;2019845;71;20657;-76
2023/10/05 08:59:47;;;;;;;5.50;2.97;;;;;;;19.31;54.47;93594.81;2019769;71;20229;-75
2023/10/05 09:02:18;;;;;;;5.70;3.20;;;;;;;19.86;51.87;93590.66;2019373;71;20156;-76
2023/10/05 09:05:00;;;;;;;5.22;3.13;;;;;;;19.97;51.94;93606.81;2019869;71;20215;-76
2023/10/05 09:07:37;;;;;;;4.63;2.95;;;;;;;20.17;51.92;93599.06;2019891;71;20169;-76
2023/10/05 09:10:05;;;;;;;6.00;3.00;;;;;;;19.92;51.18;93603.06;2019808;71;20184;-76
2023/10/05 09:12:35;;;;;;;5.47;3.15;;;;;;;20.71;50.56;93607.56;2019852;71;20156;-76
2023/10/05 09:15:27;;;;;;;5.00;3.25;;;;;;;20.51;50.69;93611.13;2018902;71;20154;-76
2023/10/05 09:20:32;;;;;;;6.05;3.50;;;;;;;20.08;49.91;93610.84;2019856;71;20141;-76
2023/10/05 09:23:13;;;;;;;5.80;3.00;;;;;;;21.19;49.78;93611.47;2018858;71;20645;-76
2023/10/05 09:25:48;;;;;;;6.75;3.08;;;;;;;21.42;48.41;93610.16;2019608;71;20149;-76
2023/10/05 09:28:28;;;;;;;4.88;2.90;;;;;;;22.32;46.79;93613.91;2019565;71;20153;-76
2023/10/05 09:30:57;;;;;;;6.03;2.80;;;;;;;22.64;46.70;93601.22;2019588;71;20226;-76
2023/10/05 09:33:26;;;;;;;4.68;3.17;;;;;;;23.29;46.17;93600.25;2019504;71;20150;-77
2023/10/05 09:36:07;;;;;;;5.25;3.10;;;;;;;22.54;46.80;93598.75;2019884;71;20537;-76
2023/10/05 09:38:40;;;;;;;5.50;2.97;;;;;;;22.29;46.31;93600.16;2020060;71;20231;-75
2023/10/05 09:41:08;;;;;;;4.45;3.15;;;;;;;22.49;46.52;93588.56;2019707;71;20158;-76
2023/10/05 09:43:38;;;;;;;5.18;3.10;;;;;;;23.44;45.48;93581.25;2019488;71;20177;-75
2023/10/05 09:46:09;;;;;;;4.78;3.13;;;;;;;23.76;44.10;93587.88;2019756;71;20166;-76
2023/10/05 09:48:37;;;;;;;6.35;3.13;;;;;;;22.35;46.47;93593.88;2019118;71;20166;-76
2023/10/05 09:51:06;;;;;;;4.57;2.92;;;;;;;22.89;44.90;93577.59;2019632;71;20153;-76
2023/10/05 09:53:35;;;;;;;4.35;2.90;;;;;;;24.70;44.42;93581.50;2019997;71;20680;-75
2023/10/05 09:56:01;;;;;;;4.68;2.88;;;;;;;24.20;41.51;93573.16;2019565;71;20162;-76
2023/10/05 09:58:28;;;;;;;6.45;3.10;;;;;;;24.89;42.23;93568.22;2019356;71;20160;-76
2023/10/05 10:00:55;;;;;;;5.32;3.25;;;;;;;24.81;42.56;93568.03;2019722;71;20598;-77
2023/10/05 10:03:22;;;;;;;4.38;2.88;;;;;;;25.81;40.61;93567.16;2019740;71;20153;-77
2023/10/05 10:05:52;;;;;;;6.70;2.92;;;;;;;26.59;39.19;93569.16;2020062;71;20154;-77
2023/10/05 10:08:31;;;;;;;5.95;3.20;;;;;;;25.66;39.72;93571.16;2019739;71;20164;-77
2023/10/05 10:11:09;;;;;;;5.88;2.90;;;;;;;25.88;40.19;93568.69;2019614;71;20160;-78
2023/10/05 10:13:37;;;;;;;6.00;3.28;;;;;;;26.34;39.82;93571.66;2019331;71;20165;-76
2023/10/05 10:16:22;;;;;;;6.00;2.88;;;;;;;25.13;40.50;93568.00;2018362;71;20185;-77
2023/10/05 10:19:06;;;;;;;5.32;3.03;;;;;;;25.90;39.80;93565.88;2018932;71;20181;-76
2023/10/05 10:22:15;;;;;;;5.00;3.15;;;;;;;25.64;39.40;93566.09;2019143;71;20146;-77
2023/10/05 10:24:34;;;;;;;6.55;3.00;;;;;;;25.81;39.65;93567.16;2018343;71;21092;-78
2023/10/05 10:27:07;;;;;;;8.00;3.58;;;;;;;25.03;39.97;93562.75;2018884;71;20154;-76
2023/10/05 10:30:01;;;;;;;4.90;3.25;;;;;;;24.92;41.76;93551.69;2018828;71;20138;-77
2023/10/05 10:32:34;;;;;;;5.63;3.13;;;;;;;24.76;42.29;93537.72;2018809;71;20607;-79
2023/10/05 10:35:10;;;;;;;4.88;3.20;;;;;;;24.65;42.55;93527.38;2018329;71;20178;-76
2023/10/05 10:37:39;;;;;;;5.90;3.17;;;;;;;24.77;40.62;93522.63;2019309;71;20180;-77
2023/10/05 10:40:25;;;;;;;5.03;3.30;;;;;;;24.28;41.44;93515.03;2019393;71;20160;-77
2023/10/05 10:43:06;;;;;;;5.78;3.13;;;;;;;23.93;42.72;93522.88;2019040;71;20206;-77
2023/10/05 10:45:36;;;;;;;4.88;2.95;;;;;;;24.21;41.69;93517.06;2019360;71;20145;-76
2023/10/05 10:48:22;;;;;;;5.63;3.22;;;;;;;24.26;42.34;93512.88;2018899;71;20173;-75
2023/10/05 10:50:52;;;;;;;5.18;3.10;;;;;;;24.27;42.66;93519.34;2018957;71;20748;-74
2023/10/05 10:53:25;;;;;;;5.18;2.90;;;;;;;24.01;43.04;93514.47;2018329;71;20218;-77
2023/10/05 10:56:03;;;;;;;5.95;3.10;;;;;;;23.37;43.70;93522.91;2018735;71;20149;-77
2023/10/05 10:58:34;;;;;;;5.97;3.40;;;;;;;23.38;44.17;93512.16;2018758;71;20161;-77
2023/10/05 11:01:13;;;;;;;4.57;3.13;;;;;;;23.87;42.75;93514.13;2019077;71;20141;-77
2023/10/05 11:03:41;;;;;;;4.53;3.28;;;;;;;23.17;43.54;93510.88;2019154;71;20259;-77
2023/10/05 11:06:09;;;;;;;6.55;3.53;;;;;;;23.46;42.42;93501.59;2019064;71;20158;-76
2023/10/05 11:08:40;;;;;;;6.00;3.20;;;;;;;23.53;43.01;93499.59;2019257;71;20688;-76
2023/10/05 11:11:19;;;;;;;8.70;3.45;;;;;;;22.98;44.02;93493.16;2018657;71;20248;-76
2023/10/05 11:14:05;;;;;;;4.88;3.00;;;;;;;23.96;42.21;93498.53;2019275;71;20165;-76
2023/10/05 11:16:43;;;;;;;5.80;3.58;;;;;;;23.87;42.27;93499.75;2019033;71;20158;-77
2023/10/05 11:19:13;;;;;;;5.07;3.35;;;;;;;23.40;43.24;93489.94;2018927;71;20245;-76
2023/10/05 11:21:45;;;;;;;5.55;3.35;;;;;;;23.67;43.80;93484.88;2019131;71;20264;-77
2023/10/05 11:24:15;;;;;;;3.92;2.75;;;;;;;25.44;41.94;93482.88;2018738;71;20177;-76
2023/10/05 11:29:29;;;;;;;6.45;3.20;;;;;;;27.10;38.62;93468.72;2018753;71;20607;-77
2023/10/05 11:32:13;;;;;;;;;;;;;;;27.54;38.19;93467.72;2018752;71;20645;-76
2023/10/05 11:34:44;;;;;;;5.68;3.28;;;;;;;29.26;35.27;93469.53;2018526;71;20103;-76
2023/10/05 11:37:16;;;;;;;5.43;2.92;;;;;;;31.08;33.56;93452.75;2017841;71;20211;-76
2023/10/05 11:39:49;;;;;;;5.20;3.28;;;;;;;32.94;30.62;93460.06;2018448;71;20162;-76
2023/10/05 11:42:32;;;;;;;5.28;3.40;;;;;;;33.90;28.74;93456.59;2018918;71;20150;-77
2023/10/05 11:44:59;;;;;;;5.28;3.10;;;;;;;31.14;31.10;93452.72;2018671;71;20153;-77
2023/10/05 11:47:35;;;;;;;6.53;3.50;;;;;;;33.49;29.56;93444.78;2018620;71;20226;-76
2023/10/05 11:50:08;;;;;;;4.35;2.95;;;;;;;31.62;30.35;93443.00;2019223;71;20164;-78
2023/10/05 11:52:38;;;;;;;5.25;3.25;;;;;;;29.86;31.56;93439.19;2019524;71;20138;-77
2023/10/05 11:55:11;;;;;;;4.88;3.20;;;;;;;29.93;32.75;93429.03;2019767;71;20177;-77
2023/10/05 11:57:38;;;;;;;5.25;3.53;;;;;;;29.23;33.17;93422.44;2019583;71;20157;-77
2023/10/05 12:00:05;;;;;;;4.03;2.85;;;;;;;29.34;33.97;93421.00;2019585;71;20161;-77
2023/10/05 12:02:33;;;;;;;4.55;3.20;;;;;;;30.95;32.15;93419.38;2019132;71;20161;-77
2023/10/05 12:04:59;;;;;;;6.05;3.25;;;;;;;31.80;30.77;93421.06;2019368;71;20157;-79
2023/10/05 12:07:25;;;;;;;4.93;3.28;;;;;;;33.28;28.89;93421.00;2019760;71;20610;-79
2023/10/05 12:09:51;;;;;;;5.28;3.30;;;;;;;35.01;28.43;93429.84;2019915;71;20149;-79
2023/10/05 12:12:18;;;;;;;3.95;3.00;;;;;;;37.50;25.05;93425.91;2019578;71;20538;-76
2023/10/05 12:14:44;;;;;;;4.90;3.50;;;;;;;37.00;25.25;93426.59;2019664;71;20150;-76
2023/10/05 12:17:10;;;;;;;5.65;3.40;;;;;;;33.08;28.49;93427.81;2019646;71;20150;-76